sensor_id;sensor_type;location;lat;lon;timestamp;P1;durP1;ratioP1;P2;durP2;ratioP2
6033;SDS011;3045;43.226;27.858;2023-02-23T00:00:30;13.33;;;10.13;;
6033;SDS011;3045;43.226;27.858;2023-02-23T00:02:58;16.53;;;10.13;;
6033;SDS011;3045;43.226;27.858;2023-02-23T00:05:27;14.77;;;10.63;;
6033;SDS011;3045;43.226;27.858;2023-02-23T00:07:55;13.87;;;10.93;;
6033;SDS011;3045;43.226;27.858;2023-02-23T00:10:23;17.70;;;10.47;;
6033;SDS011;3045;43.226;27.858;2023-02-23T00:12:54;16.50;;;10.07;;
6033;SDS011;3045;43.226;27.858;2023-02-23T00:15:23;16.20;;;9.57;;
6033;SDS011;3045;43.226;27.858;2023-02-23T00:17:52;18.50;;;9.67;;
6033;SDS011;3045;43.226;27.858;2023-02-23T00:20:19;19.43;;;9.70;;
6033;SDS011;3045;43.226;27.858;2023-02-23T00:22:51;16.03;;;9.90;;
6033;SDS011;3045;43.226;27.858;2023-02-23T00:25:19;17.17;;;10.73;;
6033;SDS011;3045;43.226;27.858;2023-02-23T00:27:48;13.67;;;10.13;;
6033;SDS011;3045;43.226;27.858;2023-02-23T00:30:17;18.40;;;9.93;;
6033;SDS011;3045;43.226;27.858;2023-02-23T00:32:45;10.20;;;9.20;;
6033;SDS011;3045;43.226;27.858;2023-02-23T00:35:12;10.60;;;9.60;;
6033;SDS011;3045;43.226;27.858;2023-02-23T00:37:43;11.33;;;9.40;;
6033;SDS011;3045;43.226;27.858;2023-02-23T00:40:12;13.33;;;10.30;;
6033;SDS011;3045;43.226;27.858;2023-02-23T00:42:41;13.90;;;11.10;;
6033;SDS011;3045;43.226;27.858;2023-02-23T00:45:10;21.10;;;11.07;;
6033;SDS011;3045;43.226;27.858;2023-02-23T00:47:39;14.77;;;10.43;;
6033;SDS011;3045;43.226;27.858;2023-02-23T00:50:08;18.83;;;11.30;;
6033;SDS011;3045;43.226;27.858;2023-02-23T00:52:39;15.43;;;10.87;;
6033;SDS011;3045;43.226;27.858;2023-02-23T00:55:08;17.80;;;12.17;;
6033;SDS011;3045;43.226;27.858;2023-02-23T00:57:37;17.20;;;10.70;;
6033;SDS011;3045;43.226;27.858;2023-02-23T01:00:04;25.30;;;12.30;;
6033;SDS011;3045;43.226;27.858;2023-02-23T01:02:42;19.37;;;9.87;;
6033;SDS011;3045;43.226;27.858;2023-02-23T01:05:10;12.93;;;10.67;;
6033;SDS011;3045;43.226;27.858;2023-02-23T01:07:37;14.93;;;10.97;;
6033;SDS011;3045;43.226;27.858;2023-02-23T01:10:06;17.23;;;13.40;;
6033;SDS011;3045;43.226;27.858;2023-02-23T01:12:44;15.47;;;13.87;;
6033;SDS011;3045;43.226;27.858;2023-02-23T01:15:12;21.03;;;13.47;;
6033;SDS011;3045;43.226;27.858;2023-02-23T01:17:39;17.67;;;12.33;;
6033;SDS011;3045;43.226;27.858;2023-02-23T01:20:09;18.97;;;12.73;;
6033;SDS011;3045;43.226;27.858;2023-02-23T01:22:42;26.70;;;12.20;;
6033;SDS011;3045;43.226;27.858;2023-02-23T01:25:10;14.13;;;12.77;;
6033;SDS011;3045;43.226;27.858;2023-02-23T01:27:37;19.33;;;11.53;;
6033;SDS011;3045;43.226;27.858;2023-02-23T01:30:05;18.43;;;11.90;;
6033;SDS011;3045;43.226;27.858;2023-02-23T01:32:33;17.60;;;10.93;;
6033;SDS011;3045;43.226;27.858;2023-02-23T01:35:01;13.93;;;9.20;;
6033;SDS011;3045;43.226;27.858;2023-02-23T01:37:30;17.97;;;10.07;;
6033;SDS011;3045;43.226;27.858;2023-02-23T01:40:00;11.87;;;9.60;;
6033;SDS011;3045;43.226;27.858;2023-02-23T01:42:35;13.03;;;11.13;;
6033;SDS011;3045;43.226;27.858;2023-02-23T01:47:54;20.87;;;11.10;;
6033;SDS011;3045;43.226;27.858;2023-02-23T01:50:26;11.87;;;10.83;;
6033;SDS011;3045;43.226;27.858;2023-02-23T01:52:57;15.00;;;10.43;;
6033;SDS011;3045;43.226;27.858;2023-02-23T01:55:25;14.97;;;11.90;;
6033;SDS011;3045;43.226;27.858;2023-02-23T01:57:55;16.73;;;9.37;;
6033;SDS011;3045;43.226;27.858;2023-02-23T02:00:27;15.13;;;9.13;;
6033;SDS011;3045;43.226;27.858;2023-02-23T02:02:56;13.67;;;9.33;;
6033;SDS011;3045;43.226;27.858;2023-02-23T02:05:25;24.97;;;13.67;;
6033;SDS011;3045;43.226;27.858;2023-02-23T02:07:54;14.53;;;12.10;;
6033;SDS011;3045;43.226;27.858;2023-02-23T02:10:26;19.20;;;12.00;;
6033;SDS011;3045;43.226;27.858;2023-02-23T02:13:13;21.40;;;11.40;;
6033;SDS011;3045;43.226;27.858;2023-02-23T02:15:49;19.50;;;11.80;;
6033;SDS011;3045;43.226;27.858;2023-02-23T02:18:38;16.93;;;10.10;;
6033;SDS011;3045;43.226;27.858;2023-02-23T02:27:31;13.87;;;11.13;;
6033;SDS011;3045;43.226;27.858;2023-02-23T02:30:19;14.43;;;9.87;;
6033;SDS011;3045;43.226;27.858;2023-02-23T02:36:18;19.27;;;11.03;;
6033;SDS011;3045;43.226;27.858;2023-02-23T02:38:57;11.83;;;10.40;;
6033;SDS011;3045;43.226;27.858;2023-02-23T02:41:35;19.40;;;11.67;;
6033;SDS011;3045;43.226;27.858;2023-02-23T02:44:16;17.47;;;10.37;;
6033;SDS011;3045;43.226;27.858;2023-02-23T02:46:46;12.93;;;10.80;;
6033;SDS011;3045;43.226;27.858;2023-02-23T02:49:19;17.70;;;9.73;;
6033;SDS011;3045;43.226;27.858;2023-02-23T02:51:52;13.33;;;9.23;;
6033;SDS011;3045;43.226;27.858;2023-02-23T02:54:26;18.27;;;10.40;;
6033;SDS011;3045;43.226;27.858;2023-02-23T02:57:00;19.23;;;10.47;;
6033;SDS011;3045;43.226;27.858;2023-02-23T02:59:28;30.57;;;10.70;;
6033;SDS011;3045;43.226;27.858;2023-02-23T03:02:14;16.80;;;9.50;;
6033;SDS011;3045;43.226;27.858;2023-02-23T03:05:00;15.60;;;9.83;;
6033;SDS011;3045;43.226;27.858;2023-02-23T03:07:47;24.40;;;10.60;;
6033;SDS011;3045;43.226;27.858;2023-02-23T03:10:40;15.83;;;11.47;;
6033;SDS011;3045;43.226;27.858;2023-02-23T03:13:30;22.40;;;11.20;;
6033;SDS011;3045;43.226;27.858;2023-02-23T03:16:24;13.47;;;10.37;;
6033;SDS011;3045;43.226;27.858;2023-02-23T03:19:14;16.57;;;10.40;;
6033;SDS011;3045;43.226;27.858;2023-02-23T03:22:05;19.70;;;10.43;;
6033;SDS011;3045;43.226;27.858;2023-02-23T03:24:57;21.40;;;10.70;;
6033;SDS011;3045;43.226;27.858;2023-02-23T03:27:47;11.73;;;9.70;;
6033;SDS011;3045;43.226;27.858;2023-02-23T03:30:47;12.77;;;9.17;;
6033;SDS011;3045;43.226;27.858;2023-02-23T03:33:37;13.20;;;10.67;;
6033;SDS011;3045;43.226;27.858;2023-02-23T03:36:26;10.97;;;9.37;;
6033;SDS011;3045;43.226;27.858;2023-02-23T03:39:16;13.30;;;10.10;;
6033;SDS011;3045;43.226;27.858;2023-02-23T03:42:06;16.20;;;10.07;;
6033;SDS011;3045;43.226;27.858;2023-02-23T03:44:57;18.93;;;9.20;;
6033;SDS011;3045;43.226;27.858;2023-02-23T03:47:44;10.20;;;8.13;;
6033;SDS011;3045;43.226;27.858;2023-02-23T03:50:30;15.67;;;9.77;;
6033;SDS011;3045;43.226;27.858;2023-02-23T03:53:22;12.47;;;10.57;;
6033;SDS011;3045;43.226;27.858;2023-02-23T03:56:11;13.80;;;10.23;;
6033;SDS011;3045;43.226;27.858;2023-02-23T03:58:59;17.83;;;10.43;;
6033;SDS011;3045;43.226;27.858;2023-02-23T04:01:48;15.30;;;10.33;;
6033;SDS011;3045;43.226;27.858;2023-02-23T04:04:36;15.67;;;9.93;;
6033;SDS011;3045;43.226;27.858;2023-02-23T04:07:21;8.17;;;7.33;;
6033;SDS011;3045;43.226;27.858;2023-02-23T04:10:09;13.73;;;10.43;;
6033;SDS011;3045;43.226;27.858;2023-02-23T04:12:55;19.37;;;11.10;;
6033;SDS011;3045;43.226;27.858;2023-02-23T04:15:40;18.33;;;10.57;;
6033;SDS011;3045;43.226;27.858;2023-02-23T04:18:13;15.30;;;10.30;;
6033;SDS011;3045;43.226;27.858;2023-02-23T04:20:41;13.50;;;10.10;;
6033;SDS011;3045;43.226;27.858;2023-02-23T04:23:08;6.83;;;6.27;;
6033;SDS011;3045;43.226;27.858;2023-02-23T04:25:35;11.10;;;7.47;;
6033;SDS011;3045;43.226;27.858;2023-02-23T04:28:02;9.13;;;5.77;;
6033;SDS011;3045;43.226;27.858;2023-02-23T04:30:29;7.10;;;6.40;;
6033;SDS011;3045;43.226;27.858;2023-02-23T04:32:56;5.83;;;5.43;;
6033;SDS011;3045;43.226;27.858;2023-02-23T04:35:26;6.57;;;5.13;;
6033;SDS011;3045;43.226;27.858;2023-02-23T04:37:55;11.83;;;6.80;;
6033;SDS011;3045;43.226;27.858;2023-02-23T04:40:23;9.50;;;7.37;;
6033;SDS011;3045;43.226;27.858;2023-02-23T04:42:51;8.37;;;7.63;;
6033;SDS011;3045;43.226;27.858;2023-02-23T04:45:18;11.10;;;8.30;;
6033;SDS011;3045;43.226;27.858;2023-02-23T04:47:46;10.47;;;9.27;;
6033;SDS011;3045;43.226;27.858;2023-02-23T04:50:13;11.73;;;8.47;;
6033;SDS011;3045;43.226;27.858;2023-02-23T04:52:42;11.37;;;6.53;;
6033;SDS011;3045;43.226;27.858;2023-02-23T04:55:12;7.07;;;6.63;;
6033;SDS011;3045;43.226;27.858;2023-02-23T04:57:42;7.77;;;6.23;;
6033;SDS011;3045;43.226;27.858;2023-02-23T05:00:10;11.17;;;7.00;;
6033;SDS011;3045;43.226;27.858;2023-02-23T05:02:37;6.40;;;5.63;;
6033;SDS011;3045;43.226;27.858;2023-02-23T05:05:05;7.93;;;5.60;;
6033;SDS011;3045;43.226;27.858;2023-02-23T05:07:33;5.73;;;5.43;;
6033;SDS011;3045;43.226;27.858;2023-02-23T05:10:02;7.50;;;6.80;;
6033;SDS011;3045;43.226;27.858;2023-02-23T05:12:29;7.03;;;6.37;;
6033;SDS011;3045;43.226;27.858;2023-02-23T05:14:57;8.20;;;7.50;;
6033;SDS011;3045;43.226;27.858;2023-02-23T05:17:24;8.00;;;6.50;;
6033;SDS011;3045;43.226;27.858;2023-02-23T05:19:50;6.17;;;5.67;;
6033;SDS011;3045;43.226;27.858;2023-02-23T05:22:17;5.70;;;5.40;;
6033;SDS011;3045;43.226;27.858;2023-02-23T05:24:44;4.90;;;4.50;;
6033;SDS011;3045;43.226;27.858;2023-02-23T05:27:13;5.23;;;4.70;;
6033;SDS011;3045;43.226;27.858;2023-02-23T05:29:41;6.30;;;5.00;;
6033;SDS011;3045;43.226;27.858;2023-02-23T05:32:08;4.37;;;4.07;;
6033;SDS011;3045;43.226;27.858;2023-02-23T05:34:35;5.33;;;4.83;;
6033;SDS011;3045;43.226;27.858;2023-02-23T05:37:03;5.53;;;4.50;;
6033;SDS011;3045;43.226;27.858;2023-02-23T05:39:30;6.87;;;5.33;;
6033;SDS011;3045;43.226;27.858;2023-02-23T05:41:57;8.37;;;5.90;;
6033;SDS011;3045;43.226;27.858;2023-02-23T05:44:25;7.43;;;4.37;;
6033;SDS011;3045;43.226;27.858;2023-02-23T05:46:52;8.90;;;5.30;;
6033;SDS011;3045;43.226;27.858;2023-02-23T05:49:19;7.70;;;5.87;;
6033;SDS011;3045;43.226;27.858;2023-02-23T05:51:46;8.60;;;5.07;;
6033;SDS011;3045;43.226;27.858;2023-02-23T05:54:13;5.80;;;4.87;;
6033;SDS011;3045;43.226;27.858;2023-02-23T05:56:40;4.07;;;3.67;;
6033;SDS011;3045;43.226;27.858;2023-02-23T05:59:07;4.47;;;4.07;;
6033;SDS011;3045;43.226;27.858;2023-02-23T06:01:36;4.83;;;4.23;;
6033;SDS011;3045;43.226;27.858;2023-02-23T06:04:03;3.57;;;3.37;;
6033;SDS011;3045;43.226;27.858;2023-02-23T06:06:30;7.07;;;4.03;;
6033;SDS011;3045;43.226;27.858;2023-02-23T06:08:56;7.47;;;3.97;;
6033;SDS011;3045;43.226;27.858;2023-02-23T06:11:23;4.80;;;4.43;;
6033;SDS011;3045;43.226;27.858;2023-02-23T06:13:50;6.73;;;4.70;;
6033;SDS011;3045;43.226;27.858;2023-02-23T06:16:17;9.10;;;5.20;;
6033;SDS011;3045;43.226;27.858;2023-02-23T06:18:46;10.53;;;4.83;;
6033;SDS011;3045;43.226;27.858;2023-02-23T06:21:13;5.73;;;4.30;;
6033;SDS011;3045;43.226;27.858;2023-02-23T06:23:40;6.33;;;4.47;;
6033;SDS011;3045;43.226;27.858;2023-02-23T06:26:07;6.33;;;4.50;;
6033;SDS011;3045;43.226;27.858;2023-02-23T06:28:34;4.80;;;3.60;;
6033;SDS011;3045;43.226;27.858;2023-02-23T06:31:01;6.00;;;4.40;;
6033;SDS011;3045;43.226;27.858;2023-02-23T06:33:28;7.50;;;4.67;;
6033;SDS011;3045;43.226;27.858;2023-02-23T06:35:56;11.93;;;5.07;;
6033;SDS011;3045;43.226;27.858;2023-02-23T06:38:23;5.80;;;4.33;;
6033;SDS011;3045;43.226;27.858;2023-02-23T06:40:50;8.20;;;4.30;;
6033;SDS011;3045;43.226;27.858;2023-02-23T06:43:17;9.03;;;5.00;;
6033;SDS011;3045;43.226;27.858;2023-02-23T06:45:45;8.33;;;5.47;;
6033;SDS011;3045;43.226;27.858;2023-02-23T06:48:12;10.67;;;4.73;;
6033;SDS011;3045;43.226;27.858;2023-02-23T06:50:38;5.87;;;4.53;;
6033;SDS011;3045;43.226;27.858;2023-02-23T06:53:07;5.03;;;4.63;;
6033;SDS011;3045;43.226;27.858;2023-02-23T06:55:34;7.20;;;4.47;;
6033;SDS011;3045;43.226;27.858;2023-02-23T06:58:01;6.60;;;4.50;;
6033;SDS011;3045;43.226;27.858;2023-02-23T07:00:28;12.83;;;4.23;;
6033;SDS011;3045;43.226;27.858;2023-02-23T07:02:58;7.97;;;4.30;;
6033;SDS011;3045;43.226;27.858;2023-02-23T07:05:25;4.23;;;3.80;;
6033;SDS011;3045;43.226;27.858;2023-02-23T07:07:52;6.23;;;3.27;;
6033;SDS011;3045;43.226;27.858;2023-02-23T07:10:20;5.50;;;3.77;;
6033;SDS011;3045;43.226;27.858;2023-02-23T07:12:47;6.00;;;3.77;;
6033;SDS011;3045;43.226;27.858;2023-02-23T07:15:14;4.10;;;3.03;;
6033;SDS011;3045;43.226;27.858;2023-02-23T07:17:44;6.57;;;3.30;;
6033;SDS011;3045;43.226;27.858;2023-02-23T07:20:13;6.50;;;3.53;;
6033;SDS011;3045;43.226;27.858;2023-02-23T07:22:40;9.30;;;4.10;;
6033;SDS011;3045;43.226;27.858;2023-02-23T07:25:07;9.93;;;3.70;;
6033;SDS011;3045;43.226;27.858;2023-02-23T07:27:36;4.23;;;3.83;;
6033;SDS011;3045;43.226;27.858;2023-02-23T07:30:03;9.93;;;3.60;;
6033;SDS011;3045;43.226;27.858;2023-02-23T07:35:52;4.43;;;3.63;;
6033;SDS011;3045;43.226;27.858;2023-02-23T07:38:19;3.13;;;2.83;;
6033;SDS011;3045;43.226;27.858;2023-02-23T07:40:48;3.90;;;3.00;;
6033;SDS011;3045;43.226;27.858;2023-02-23T07:43:16;4.70;;;3.50;;
6033;SDS011;3045;43.226;27.858;2023-02-23T07:45:45;3.50;;;3.23;;
6033;SDS011;3045;43.226;27.858;2023-02-23T07:48:12;3.93;;;3.43;;
6033;SDS011;3045;43.226;27.858;2023-02-23T07:50:39;4.23;;;3.93;;
6033;SDS011;3045;43.226;27.858;2023-02-23T07:53:06;7.47;;;3.63;;
6033;SDS011;3045;43.226;27.858;2023-02-23T07:55:33;2.37;;;2.20;;
6033;SDS011;3045;43.226;27.858;2023-02-23T07:58:02;2.07;;;1.97;;
6033;SDS011;3045;43.226;27.858;2023-02-23T08:00:31;4.23;;;3.10;;
6033;SDS011;3045;43.226;27.858;2023-02-23T08:02:58;6.90;;;3.43;;
6033;SDS011;3045;43.226;27.858;2023-02-23T08:05:26;5.00;;;3.30;;
6033;SDS011;3045;43.226;27.858;2023-02-23T08:07:53;7.37;;;3.33;;
6033;SDS011;3045;43.226;27.858;2023-02-23T08:10:20;4.70;;;4.07;;
6033;SDS011;3045;43.226;27.858;2023-02-23T08:12:47;5.23;;;3.23;;
6033;SDS011;3045;43.226;27.858;2023-02-23T08:15:14;2.30;;;2.20;;
6033;SDS011;3045;43.226;27.858;2023-02-23T08:17:43;3.63;;;3.33;;
6033;SDS011;3045;43.226;27.858;2023-02-23T08:20:10;3.10;;;2.77;;
6033;SDS011;3045;43.226;27.858;2023-02-23T08:22:37;4.70;;;3.20;;
6033;SDS011;3045;43.226;27.858;2023-02-23T08:25:04;5.37;;;3.10;;
6033;SDS011;3045;43.226;27.858;2023-02-23T08:27:32;5.93;;;3.03;;
6033;SDS011;3045;43.226;27.858;2023-02-23T08:29:59;4.10;;;3.47;;
6033;SDS011;3045;43.226;27.858;2023-02-23T08:32:30;3.60;;;2.53;;
6033;SDS011;3045;43.226;27.858;2023-02-23T08:35:01;5.13;;;3.43;;
6033;SDS011;3045;43.226;27.858;2023-02-23T08:37:29;13.20;;;4.07;;
6033;SDS011;3045;43.226;27.858;2023-02-23T08:39:56;5.17;;;2.53;;
6033;SDS011;3045;43.226;27.858;2023-02-23T08:42:24;5.60;;;2.50;;
6033;SDS011;3045;43.226;27.858;2023-02-23T08:44:52;4.33;;;2.90;;
6033;SDS011;3045;43.226;27.858;2023-02-23T08:47:19;3.40;;;2.07;;
6033;SDS011;3045;43.226;27.858;2023-02-23T08:49:47;2.27;;;2.07;;
6033;SDS011;3045;43.226;27.858;2023-02-23T08:52:17;5.20;;;1.77;;
6033;SDS011;3045;43.226;27.858;2023-02-23T08:54:44;1.90;;;1.80;;
6033;SDS011;3045;43.226;27.858;2023-02-23T08:57:11;3.57;;;2.63;;
6033;SDS011;3045;43.226;27.858;2023-02-23T08:59:38;3.77;;;2.63;;
6033;SDS011;3045;43.226;27.858;2023-02-23T09:02:06;1.77;;;1.40;;
6033;SDS011;3045;43.226;27.858;2023-02-23T09:04:37;4.57;;;2.63;;
6033;SDS011;3045;43.226;27.858;2023-02-23T09:07:06;7.57;;;2.50;;
6033;SDS011;3045;43.226;27.858;2023-02-23T09:09:35;3.37;;;3.17;;
6033;SDS011;3045;43.226;27.858;2023-02-23T09:12:02;5.30;;;1.83;;
6033;SDS011;3045;43.226;27.858;2023-02-23T09:14:29;3.47;;;2.40;;
6033;SDS011;3045;43.226;27.858;2023-02-23T09:16:56;4.03;;;3.00;;
6033;SDS011;3045;43.226;27.858;2023-02-23T09:19:23;3.43;;;1.77;;
6033;SDS011;3045;43.226;27.858;2023-02-23T09:21:51;2.50;;;2.23;;
6033;SDS011;3045;43.226;27.858;2023-02-23T09:24:18;4.50;;;2.50;;
6033;SDS011;3045;43.226;27.858;2023-02-23T09:26:47;4.37;;;2.43;;
6033;SDS011;3045;43.226;27.858;2023-02-23T09:29:14;5.80;;;2.53;;
6033;SDS011;3045;43.226;27.858;2023-02-23T09:31:41;1.90;;;1.80;;
6033;SDS011;3045;43.226;27.858;2023-02-23T09:34:08;9.57;;;1.87;;
6033;SDS011;3045;43.226;27.858;2023-02-23T09:36:38;2.90;;;1.70;;
6033;SDS011;3045;43.226;27.858;2023-02-23T09:39:05;2.50;;;1.60;;
6033;SDS011;3045;43.226;27.858;2023-02-23T09:41:38;5.03;;;2.03;;
6033;SDS011;3045;43.226;27.858;2023-02-23T09:44:28;2.67;;;2.13;;
6033;SDS011;3045;43.226;27.858;2023-02-23T09:47:08;3.87;;;2.90;;
6033;SDS011;3045;43.226;27.858;2023-02-23T09:49:49;6.23;;;2.90;;
6033;SDS011;3045;43.226;27.858;2023-02-23T09:52:19;4.60;;;2.00;;
6033;SDS011;3045;43.226;27.858;2023-02-23T09:54:49;6.27;;;4.17;;
6033;SDS011;3045;43.226;27.858;2023-02-23T09:57:17;3.00;;;2.67;;
6033;SDS011;3045;43.226;27.858;2023-02-23T09:59:49;3.20;;;2.27;;
6033;SDS011;3045;43.226;27.858;2023-02-23T10:02:22;2.60;;;2.40;;
6033;SDS011;3045;43.226;27.858;2023-02-23T10:04:51;4.63;;;3.70;;
6033;SDS011;3045;43.226;27.858;2023-02-23T10:07:25;8.60;;;1.80;;
6033;SDS011;3045;43.226;27.858;2023-02-23T10:10:02;3.63;;;2.80;;
6033;SDS011;3045;43.226;27.858;2023-02-23T10:12:39;3.80;;;1.97;;
6033;SDS011;3045;43.226;27.858;2023-02-23T10:15:20;2.30;;;2.10;;
6033;SDS011;3045;43.226;27.858;2023-02-23T10:18:00;5.47;;;2.50;;
6033;SDS011;3045;43.226;27.858;2023-02-23T10:20:40;2.57;;;1.70;;
6033;SDS011;3045;43.226;27.858;2023-02-23T10:23:12;9.20;;;2.80;;
6033;SDS011;3045;43.226;27.858;2023-02-23T10:25:45;3.30;;;3.00;;
6033;SDS011;3045;43.226;27.858;2023-02-23T10:28:15;3.80;;;3.00;;
6033;SDS011;3045;43.226;27.858;2023-02-23T10:30:45;4.97;;;2.47;;
6033;SDS011;3045;43.226;27.858;2023-02-23T10:33:15;2.17;;;2.03;;
6033;SDS011;3045;43.226;27.858;2023-02-23T10:35:48;2.43;;;2.33;;
6033;SDS011;3045;43.226;27.858;2023-02-23T10:38:17;3.30;;;2.37;;
6033;SDS011;3045;43.226;27.858;2023-02-23T10:40:45;2.17;;;1.77;;
6033;SDS011;3045;43.226;27.858;2023-02-23T10:43:19;2.57;;;2.37;;
6033;SDS011;3045;43.226;27.858;2023-02-23T10:45:48;2.37;;;2.20;;
6033;SDS011;3045;43.226;27.858;2023-02-23T10:48:17;1.90;;;1.80;;
6033;SDS011;3045;43.226;27.858;2023-02-23T10:50:48;6.40;;;2.73;;
6033;SDS011;3045;43.226;27.858;2023-02-23T10:53:18;4.20;;;2.67;;
6033;SDS011;3045;43.226;27.858;2023-02-23T10:55:58;2.17;;;1.47;;
6033;SDS011;3045;43.226;27.858;2023-02-23T10:58:28;2.70;;;2.43;;
6033;SDS011;3045;43.226;27.858;2023-02-23T11:00:56;4.07;;;2.83;;
6033;SDS011;3045;43.226;27.858;2023-02-23T11:03:26;2.10;;;1.90;;
6033;SDS011;3045;43.226;27.858;2023-02-23T11:05:57;2.63;;;2.40;;
6033;SDS011;3045;43.226;27.858;2023-02-23T11:08:26;2.43;;;2.23;;
6033;SDS011;3045;43.226;27.858;2023-02-23T11:10:56;2.37;;;2.17;;
6033;SDS011;3045;43.226;27.858;2023-02-23T11:13:26;4.20;;;2.53;;
6033;SDS011;3045;43.226;27.858;2023-02-23T11:16:02;5.57;;;2.83;;
6033;SDS011;3045;43.226;27.858;2023-02-23T11:18:31;5.43;;;3.27;;
6033;SDS011;3045;43.226;27.858;2023-02-23T11:20:59;4.47;;;2.93;;
6033;SDS011;3045;43.226;27.858;2023-02-23T11:23:26;2.33;;;2.23;;
6033;SDS011;3045;43.226;27.858;2023-02-23T11:25:56;2.70;;;1.90;;
6033;SDS011;3045;43.226;27.858;2023-02-23T11:28:26;2.60;;;2.40;;
6033;SDS011;3045;43.226;27.858;2023-02-23T11:30:56;2.80;;;2.60;;
6033;SDS011;3045;43.226;27.858;2023-02-23T11:33:29;4.03;;;2.73;;
6033;SDS011;3045;43.226;27.858;2023-02-23T11:36:11;2.83;;;2.63;;
6033;SDS011;3045;43.226;27.858;2023-02-23T11:38:40;3.17;;;2.60;;
6033;SDS011;3045;43.226;27.858;2023-02-23T11:41:16;2.37;;;2.27;;
6033;SDS011;3045;43.226;27.858;2023-02-23T11:43:46;4.23;;;1.97;;
6033;SDS011;3045;43.226;27.858;2023-02-23T11:46:14;2.00;;;1.80;;
6033;SDS011;3045;43.226;27.858;2023-02-23T11:48:47;3.20;;;2.90;;
6033;SDS011;3045;43.226;27.858;2023-02-23T11:51:24;16.77;;;12.87;;
6033;SDS011;3045;43.226;27.858;2023-02-23T11:53:55;6.50;;;2.90;;
6033;SDS011;3045;43.226;27.858;2023-02-23T11:56:24;6.87;;;2.53;;
6033;SDS011;3045;43.226;27.858;2023-02-23T11:58:53;3.30;;;3.07;;
6033;SDS011;3045;43.226;27.858;2023-02-23T12:01:33;3.17;;;2.50;;
6033;SDS011;3045;43.226;27.858;2023-02-23T12:04:05;2.60;;;2.40;;
6033;SDS011;3045;43.226;27.858;2023-02-23T12:06:34;9.70;;;2.60;;
6033;SDS011;3045;43.226;27.858;2023-02-23T12:09:04;4.77;;;2.53;;
6033;SDS011;3045;43.226;27.858;2023-02-23T12:11:43;2.53;;;2.20;;
6033;SDS011;3045;43.226;27.858;2023-02-23T12:14:19;4.57;;;3.43;;
6033;SDS011;3045;43.226;27.858;2023-02-23T12:16:53;4.37;;;2.90;;
6033;SDS011;3045;43.226;27.858;2023-02-23T12:19:24;5.27;;;2.60;;
6033;SDS011;3045;43.226;27.858;2023-02-23T12:21:59;4.60;;;2.23;;
6033;SDS011;3045;43.226;27.858;2023-02-23T12:24:36;5.77;;;2.50;;
6033;SDS011;3045;43.226;27.858;2023-02-23T12:27:10;7.13;;;2.60;;
6033;SDS011;3045;43.226;27.858;2023-02-23T12:29:47;3.50;;;3.30;;
6033;SDS011;3045;43.226;27.858;2023-02-23T12:32:33;3.50;;;2.50;;
6033;SDS011;3045;43.226;27.858;2023-02-23T12:35:11;4.43;;;2.67;;
6033;SDS011;3045;43.226;27.858;2023-02-23T12:37:44;3.00;;;2.70;;
6033;SDS011;3045;43.226;27.858;2023-02-23T12:40:17;2.10;;;1.97;;
6033;SDS011;3045;43.226;27.858;2023-02-23T12:42:52;4.40;;;2.70;;
6033;SDS011;3045;43.226;27.858;2023-02-23T12:45:27;3.57;;;2.43;;
6033;SDS011;3045;43.226;27.858;2023-02-23T12:48:02;4.10;;;2.23;;
6033;SDS011;3045;43.226;27.858;2023-02-23T12:50:39;4.47;;;2.20;;
6033;SDS011;3045;43.226;27.858;2023-02-23T12:53:16;5.93;;;3.30;;
6033;SDS011;3045;43.226;27.858;2023-02-23T12:55:49;5.53;;;2.70;;
6033;SDS011;3045;43.226;27.858;2023-02-23T12:58:33;2.77;;;1.90;;
6033;SDS011;3045;43.226;27.858;2023-02-23T13:01:07;4.90;;;2.33;;
6033;SDS011;3045;43.226;27.858;2023-02-23T13:03:49;5.30;;;1.87;;
6033;SDS011;3045;43.226;27.858;2023-02-23T13:06:31;2.03;;;1.93;;
6033;SDS011;3045;43.226;27.858;2023-02-23T13:09:03;1.80;;;1.70;;
6033;SDS011;3045;43.226;27.858;2023-02-23T13:11:45;3.50;;;2.40;;
6033;SDS011;3045;43.226;27.858;2023-02-23T13:14:22;3.17;;;1.70;;
6033;SDS011;3045;43.226;27.858;2023-02-23T13:16:56;3.80;;;2.00;;
6033;SDS011;3045;43.226;27.858;2023-02-23T13:19:28;1.97;;;1.50;;
6033;SDS011;3045;43.226;27.858;2023-02-23T13:22:06;1.20;;;1.20;;
6033;SDS011;3045;43.226;27.858;2023-02-23T13:24:48;3.27;;;2.03;;
6033;SDS011;3045;43.226;27.858;2023-02-23T13:27:19;1.17;;;1.07;;
6033;SDS011;3045;43.226;27.858;2023-02-23T13:29:52;2.03;;;1.53;;
6033;SDS011;3045;43.226;27.858;2023-02-23T13:32:21;3.87;;;1.47;;
6033;SDS011;3045;43.226;27.858;2023-02-23T13:34:50;3.63;;;1.70;;
6033;SDS011;3045;43.226;27.858;2023-02-23T13:37:24;3.17;;;2.10;;
6033;SDS011;3045;43.226;27.858;2023-02-23T13:39:58;3.70;;;2.30;;
6033;SDS011;3045;43.226;27.858;2023-02-23T13:42:41;2.07;;;1.97;;
6033;SDS011;3045;43.226;27.858;2023-02-23T13:48:15;3.33;;;2.73;;
6033;SDS011;3045;43.226;27.858;2023-02-23T13:51:07;3.17;;;2.40;;
6033;SDS011;3045;43.226;27.858;2023-02-23T13:54:03;7.33;;;3.17;;
6033;SDS011;3045;43.226;27.858;2023-02-23T13:56:33;4.13;;;3.07;;
6033;SDS011;3045;43.226;27.858;2023-02-23T13:59:08;3.43;;;2.93;;
6033;SDS011;3045;43.226;27.858;2023-02-23T14:01:42;4.03;;;2.70;;
6033;SDS011;3045;43.226;27.858;2023-02-23T14:04:12;4.13;;;3.30;;
6033;SDS011;3045;43.226;27.858;2023-02-23T14:06:49;4.10;;;3.77;;
6033;SDS011;3045;43.226;27.858;2023-02-23T14:09:23;8.87;;;3.80;;
6033;SDS011;3045;43.226;27.858;2023-02-23T14:12:00;6.93;;;3.60;;
6033;SDS011;3045;43.226;27.858;2023-02-23T14:14:37;12.30;;;4.40;;
6033;SDS011;3045;43.226;27.858;2023-02-23T14:20:11;5.93;;;4.40;;
6033;SDS011;3045;43.226;27.858;2023-02-23T14:23:04;6.53;;;4.13;;
6033;SDS011;3045;43.226;27.858;2023-02-23T14:25:46;7.17;;;3.03;;
6033;SDS011;3045;43.226;27.858;2023-02-23T14:28:24;4.87;;;3.53;;
6033;SDS011;3045;43.226;27.858;2023-02-23T14:30:58;10.47;;;3.80;;
6033;SDS011;3045;43.226;27.858;2023-02-23T14:33:32;11.37;;;5.47;;
6033;SDS011;3045;43.226;27.858;2023-02-23T14:36:00;6.53;;;3.77;;
6033;SDS011;3045;43.226;27.858;2023-02-23T14:38:41;2.80;;;2.60;;
6033;SDS011;3045;43.226;27.858;2023-02-23T14:41:10;12.37;;;4.30;;
6033;SDS011;3045;43.226;27.858;2023-02-23T14:43:39;3.63;;;3.13;;
6033;SDS011;3045;43.226;27.858;2023-02-23T14:46:15;6.33;;;3.90;;
6033;SDS011;3045;43.226;27.858;2023-02-23T14:48:54;3.70;;;3.40;;
6033;SDS011;3045;43.226;27.858;2023-02-23T14:51:38;5.83;;;3.20;;
6033;SDS011;3045;43.226;27.858;2023-02-23T14:54:09;5.97;;;3.43;;
6033;SDS011;3045;43.226;27.858;2023-02-23T14:56:50;4.47;;;3.30;;
6033;SDS011;3045;43.226;27.858;2023-02-23T14:59:19;7.57;;;2.57;;
6033;SDS011;3045;43.226;27.858;2023-02-23T15:01:48;4.40;;;2.30;;
6033;SDS011;3045;43.226;27.858;2023-02-23T15:04:19;4.87;;;2.57;;
6033;SDS011;3045;43.226;27.858;2023-02-23T15:06:47;5.93;;;4.40;;
6033;SDS011;3045;43.226;27.858;2023-02-23T15:09:18;3.40;;;3.10;;
6033;SDS011;3045;43.226;27.858;2023-02-23T15:11:51;3.43;;;3.10;;
6033;SDS011;3045;43.226;27.858;2023-02-23T15:14:19;3.50;;;3.20;;
6033;SDS011;3045;43.226;27.858;2023-02-23T15:16:47;7.30;;;3.87;;
6033;SDS011;3045;43.226;27.858;2023-02-23T15:19:16;7.40;;;3.33;;
6033;SDS011;3045;43.226;27.858;2023-02-23T15:21:50;5.30;;;3.10;;
6033;SDS011;3045;43.226;27.858;2023-02-23T15:24:20;7.77;;;3.43;;
6033;SDS011;3045;43.226;27.858;2023-02-23T15:26:53;8.23;;;3.80;;
6033;SDS011;3045;43.226;27.858;2023-02-23T15:29:21;2.33;;;2.13;;
6033;SDS011;3045;43.226;27.858;2023-02-23T15:31:50;7.23;;;3.77;;
6033;SDS011;3045;43.226;27.858;2023-02-23T15:34:19;7.23;;;3.70;;
6033;SDS011;3045;43.226;27.858;2023-02-23T15:36:49;7.07;;;4.03;;
6033;SDS011;3045;43.226;27.858;2023-02-23T15:39:21;7.73;;;2.40;;
6033;SDS011;3045;43.226;27.858;2023-02-23T15:42:01;6.90;;;5.03;;
6033;SDS011;3045;43.226;27.858;2023-02-23T15:44:29;5.07;;;3.40;;
6033;SDS011;3045;43.226;27.858;2023-02-23T15:46:58;13.50;;;4.67;;